createdAt,value
2023-01-23T00:01:26.671Z,-1.52
2023-01-23T00:03:54.768Z,-1.53
2023-01-23T00:06:21.311Z,-1.53
2023-01-23T00:08:47.853Z,-1.51
2023-01-23T00:11:21.143Z,-1.52
2023-01-23T00:13:47.993Z,-1.51
2023-01-23T00:16:16.984Z,-1.53
2023-01-23T00:18:44.691Z,-1.56
2023-01-23T00:21:14.283Z,-1.54
2023-01-23T00:23:46.239Z,-1.52
2023-01-23T00:26:17.981Z,-1.52
2023-01-23T00:28:45.363Z,-1.53
2023-01-23T00:31:22.555Z,-1.52
2023-01-23T00:33:54.375Z,-1.53
2023-01-23T00:36:23.295Z,-1.50
2023-01-23T00:38:56.450Z,-1.52
2023-01-23T00:41:23.142Z,-1.54
2023-01-23T00:43:51.915Z,-1.56
2023-01-23T00:46:20.245Z,-1.54
2023-01-23T00:48:47.073Z,-1.54
2023-01-23T00:51:15.980Z,-1.50
2023-01-23T00:53:44.674Z,-1.53
2023-01-23T00:56:11.662Z,-1.54
2023-01-23T00:58:38.159Z,-1.54
2023-01-23T01:01:09.258Z,-1.54
2023-01-23T01:03:35.995Z,-1.55
2023-01-23T01:06:02.994Z,-1.58
2023-01-23T01:08:29.888Z,-1.57
2023-01-23T01:10:56.404Z,-1.58
2023-01-23T01:13:25.177Z,-1.59
2023-01-23T01:15:54.607Z,-1.57
2023-01-23T01:18:22.427Z,-1.56
2023-01-23T01:20:49.629Z,-1.57
2023-01-23T01:23:16.645Z,-1.57
2023-01-23T01:25:43.180Z,-1.57
2023-01-23T01:28:09.989Z,-1.57
2023-01-23T01:30:38.762Z,-1.57
2023-01-23T01:33:05.413Z,-1.58
2023-01-23T01:35:32.512Z,-1.54
2023-01-23T01:38:04.501Z,-1.53
2023-01-23T01:40:36.202Z,-1.53
2023-01-23T01:43:06.478Z,-1.54
2023-01-23T01:45:59.958Z,-1.53
2023-01-23T01:48:34.262Z,-1.53
2023-01-23T01:51:03.308Z,-1.54
2023-01-23T01:53:32.435Z,-1.50
2023-01-23T01:55:59.322Z,-1.51
2023-01-23T01:58:27.479Z,-1.50
2023-01-23T02:00:54.370Z,-1.51
2023-01-23T02:03:21.635Z,-1.50
2023-01-23T02:05:50.252Z,-1.46
2023-01-23T02:08:32.242Z,-1.53
2023-01-23T02:11:02.245Z,-1.51
2023-01-23T02:13:38.698Z,-1.52
2023-01-23T02:16:10.260Z,-1.52
2023-01-23T02:18:43.951Z,-1.53
2023-01-23T02:21:13.108Z,-1.53
2023-01-23T02:23:42.271Z,-1.54
2023-01-23T02:26:20.287Z,-1.52
2023-01-23T02:28:49.925Z,-1.51
2023-01-23T02:31:16.541Z,-1.54
2023-01-23T02:33:47.354Z,-1.59
2023-01-23T02:36:14.473Z,-1.59
2023-01-23T02:38:52.504Z,-1.60
2023-01-23T02:41:27.484Z,-1.59
2023-01-23T02:43:57.475Z,-1.57
2023-01-23T02:46:24.603Z,-1.56
2023-01-23T02:48:51.609Z,-1.56
2023-01-23T02:51:20.526Z,-1.54
2023-01-23T02:53:47.030Z,-1.57
2023-01-23T02:56:17.340Z,-1.57
2023-01-23T02:59:03.051Z,-1.56
2023-01-23T03:01:35.650Z,-1.59
2023-01-23T03:04:06.496Z,-1.59
2023-01-23T03:06:38.259Z,-1.57
2023-01-23T03:09:09.835Z,-1.58
2023-01-23T03:11:38.895Z,-1.59
2023-01-23T03:14:12.532Z,-1.59
2023-01-23T03:16:42.798Z,-1.59
2023-01-23T03:19:10.633Z,-1.59
2023-01-23T03:21:40.627Z,-1.59
2023-01-23T03:24:12.127Z,-1.59
2023-01-23T03:26:41.839Z,-1.62
2023-01-23T03:29:33.484Z,-1.62
2023-01-23T03:32:12.600Z,-1.62
2023-01-23T03:34:39.486Z,-1.64
2023-01-23T03:37:08.014Z,-1.65
2023-01-23T03:39:53.815Z,-1.62
2023-01-23T03:42:20.698Z,-1.62
2023-01-23T03:44:47.438Z,-1.67
2023-01-23T03:47:14.835Z,-1.67
2023-01-23T03:49:41.403Z,-1.65
2023-01-23T03:52:07.915Z,-1.63
2023-01-23T03:54:39.628Z,-1.66
2023-01-23T03:57:06.297Z,-1.68
2023-01-23T03:59:32.856Z,-1.67
2023-01-23T04:02:02.645Z,-1.62
2023-01-23T04:04:29.170Z,-1.62
2023-01-23T04:06:55.862Z,-1.63
2023-01-23T04:09:27.854Z,-1.63
2023-01-23T04:11:55.672Z,-1.61
2023-01-23T04:14:23.154Z,-1.60
2023-01-23T04:16:51.691Z,-1.60
2023-01-23T04:19:21.715Z,-1.58
2023-01-23T04:21:49.163Z,-1.60
2023-01-23T04:24:17.196Z,-1.62
2023-01-23T04:26:45.979Z,-1.61
2023-01-23T04:29:13.134Z,-1.59
2023-01-23T04:31:40.493Z,-1.60
2023-01-23T04:34:07.084Z,-1.59
2023-01-23T04:36:33.587Z,-1.61
2023-01-23T04:39:00.244Z,-1.62
2023-01-23T04:41:28.901Z,-1.59
2023-01-23T04:43:55.403Z,-1.59
2023-01-23T04:46:24.485Z,-1.58
2023-01-23T04:48:50.996Z,-1.52
2023-01-23T04:51:17.551Z,-1.50
2023-01-23T04:53:45.773Z,-1.49
2023-01-23T04:56:12.212Z,-1.50
2023-01-23T04:58:39.101Z,-1.47
2023-01-23T05:01:11.730Z,-1.44
2023-01-23T05:03:38.265Z,-1.44
2023-01-23T05:06:05.013Z,-1.43
2023-01-23T05:08:44.136Z,-1.41
2023-01-23T05:11:12.451Z,-1.33
2023-01-23T05:13:38.963Z,-1.28
2023-01-23T05:16:05.903Z,-1.30
2023-01-23T05:18:32.380Z,-1.28
2023-01-23T05:21:00.854Z,-1.27
2023-01-23T05:23:30.709Z,-1.35
2023-01-23T05:25:57.190Z,-1.32
2023-01-23T05:28:23.753Z,-1.35
2023-01-23T05:30:53.516Z,-1.40
2023-01-23T05:33:20.340Z,-1.41
2023-01-23T05:35:46.834Z,-1.41
2023-01-23T05:38:15.524Z,-1.44
2023-01-23T05:40:42.112Z,-1.48
2023-01-23T05:43:13.881Z,-1.47
2023-01-23T05:45:47.056Z,-1.49
2023-01-23T05:48:13.549Z,-1.54
2023-01-23T05:50:40.834Z,-1.50
2023-01-23T05:53:07.721Z,-1.56
2023-01-23T05:55:37.605Z,-1.58
2023-01-23T05:58:04.111Z,-1.64
2023-01-23T06:00:32.355Z,-1.65
2023-01-23T06:02:58.803Z,-1.66
2023-01-23T06:05:25.630Z,-1.64
2023-01-23T06:07:52.756Z,-1.50
2023-01-23T06:10:19.744Z,-1.44
2023-01-23T06:12:46.414Z,-1.43
2023-01-23T06:15:14.708Z,-1.41
2023-01-23T06:17:41.489Z,-1.36
2023-01-23T06:20:08.862Z,-1.34
2023-01-23T06:22:37.047Z,-1.34
2023-01-23T06:25:04.291Z,-1.30
2023-01-23T06:27:34.510Z,-1.26
2023-01-23T06:30:01.214Z,-1.31
2023-01-23T06:32:27.724Z,-1.31
2023-01-23T06:34:54.215Z,-1.31
2023-01-23T06:37:29.371Z,-1.35
2023-01-23T06:39:58.694Z,-1.36
2023-01-23T06:42:30.347Z,-1.34
2023-01-23T06:44:58.619Z,-1.34
2023-01-23T06:47:25.157Z,-1.31
2023-01-23T06:49:51.735Z,-1.34
2023-01-23T06:52:20.081Z,-1.36
2023-01-23T06:54:46.817Z,-1.39
2023-01-23T06:57:13.454Z,-1.37
2023-01-23T06:59:45.158Z,-1.40
2023-01-23T07:02:12.099Z,-1.39
2023-01-23T07:04:38.715Z,-1.40
2023-01-23T07:07:07.383Z,-1.39
2023-01-23T07:09:34.381Z,-1.39
2023-01-23T07:12:00.852Z,-1.40
2023-01-23T07:14:30.425Z,-1.39
2023-01-23T07:16:56.964Z,-1.39
2023-01-23T07:19:23.577Z,-1.38
2023-01-23T07:21:52.257Z,-1.40
2023-01-23T07:24:20.636Z,-1.38
2023-01-23T07:26:47.205Z,-1.37
2023-01-23T07:29:14.553Z,-1.40
2023-01-23T07:31:41.045Z,-1.38
2023-01-23T07:34:07.498Z,-1.38
2023-01-23T07:36:38.635Z,-1.39
2023-01-23T07:39:05.164Z,-1.39
2023-01-23T07:41:31.882Z,-1.39
2023-01-23T07:44:00.110Z,-1.39
2023-01-23T07:46:26.970Z,-1.40
2023-01-23T07:48:53.554Z,-1.39
2023-01-23T07:51:20.207Z,-1.39
2023-01-23T07:53:51.292Z,-1.39
2023-01-23T07:56:17.862Z,-1.39
2023-01-23T07:58:44.511Z,-1.39
2023-01-23T08:01:17.012Z,-1.39
2023-01-23T08:03:43.544Z,-1.40
2023-01-23T08:06:10.224Z,-1.37
2023-01-23T08:08:36.731Z,-1.35
2023-01-23T08:11:07.868Z,-1.35
2023-01-23T08:13:36.094Z,-1.35
2023-01-23T08:16:02.838Z,-1.33
2023-01-23T08:18:34.326Z,-1.30
2023-01-23T08:21:03.377Z,-1.30
2023-01-23T08:23:32.385Z,-1.29
2023-01-23T08:26:02.543Z,-1.27
2023-01-23T08:28:31.451Z,-1.26
2023-01-23T08:31:06.309Z,-1.29
2023-01-23T08:33:34.470Z,-1.28
2023-01-23T08:36:03.303Z,-1.26
2023-01-23T08:38:30.714Z,-1.26
2023-01-23T08:40:59.985Z,-1.25
2023-01-23T08:43:27.048Z,-1.26
2023-01-23T08:45:55.990Z,-1.29
2023-01-23T08:48:26.495Z,-1.27
2023-01-23T08:50:59.696Z,-1.28
2023-01-23T08:53:26.184Z,-1.27
2023-01-23T08:55:54.407Z,-1.26
2023-01-23T08:58:20.912Z,-1.27
2023-01-23T09:00:48.620Z,-1.19
2023-01-23T09:03:17.350Z,-1.16
2023-01-23T09:05:43.868Z,-1.09
2023-01-23T09:08:12.255Z,-1.01
2023-01-23T09:10:38.999Z,-0.92
2023-01-23T09:13:05.535Z,-0.83
2023-01-23T09:15:32.191Z,-0.80
2023-01-23T09:18:00.520Z,-0.78
2023-01-23T09:20:29.092Z,-0.77
2023-01-23T09:22:55.671Z,-0.77
2023-01-23T09:25:24.408Z,-0.74
2023-01-23T09:27:51.020Z,-0.73
2023-01-23T09:30:17.921Z,-0.70
2023-01-23T09:32:51.051Z,-0.64
2023-01-23T09:35:17.663Z,-0.59
2023-01-23T09:38:05.327Z,-0.60
2023-01-23T09:40:36.475Z,-0.58
2023-01-23T09:43:27.738Z,-0.55
2023-01-23T09:46:12.601Z,-0.47
2023-01-23T09:48:52.596Z,-0.46
2023-01-23T09:51:46.373Z,-0.42
2023-01-23T09:54:35.878Z,-0.40
2023-01-23T09:57:12.967Z,-0.35
2023-01-23T09:59:58.811Z,-0.33
2023-01-23T10:02:28.130Z,-0.34
2023-01-23T10:04:56.857Z,-0.33
2023-01-23T10:07:32.107Z,-0.29
2023-01-23T10:10:07.000Z,-0.30
2023-01-23T10:12:56.592Z,-0.33
2023-01-23T10:15:48.333Z,-0.32
2023-01-23T10:18:21.927Z,-0.28
2023-01-23T10:21:12.760Z,-0.21
2023-01-23T10:23:56.749Z,-0.18
2023-01-23T10:26:36.621Z,-0.18
2023-01-23T10:29:14.820Z,-0.15
2023-01-23T10:31:51.191Z,-0.12
2023-01-23T10:34:28.247Z,-0.11
2023-01-23T10:37:02.424Z,-0.05
2023-01-23T10:39:45.536Z,-0.05
2023-01-23T10:42:15.625Z,-0.07
2023-01-23T10:44:42.094Z,-0.06
2023-01-23T10:47:21.583Z,-0.06
2023-01-23T10:49:48.425Z,-0.07
2023-01-23T10:52:36.584Z,-0.04
2023-01-23T10:55:24.523Z,-0.03
2023-01-23T10:57:55.033Z,0.00
2023-01-23T11:00:37.167Z,-0.01
2023-01-23T11:03:22.056Z,0.00
2023-01-23T11:05:57.061Z,-0.01
2023-01-23T11:08:27.732Z,-0.01
2023-01-23T11:11:13.423Z,0.01
2023-01-23T11:13:50.786Z,0.02
2023-01-23T11:16:23.985Z,0.02
2023-01-23T11:19:11.541Z,0.03
2023-01-23T11:21:58.412Z,0.00
2023-01-23T11:24:38.127Z,-0.03
2023-01-23T11:27:16.697Z,0.03
2023-01-23T11:30:09.239Z,0.01
2023-01-23T11:32:47.162Z,0.04
2023-01-23T11:35:19.132Z,0.05
2023-01-23T11:40:38.401Z,0.14
2023-01-23T11:43:16.296Z,0.18
2023-01-23T11:46:11.010Z,0.22
2023-01-23T11:48:59.287Z,0.31
2023-01-23T11:51:32.401Z,0.27
2023-01-23T11:54:17.682Z,0.31
2023-01-23T11:57:00.320Z,0.33
2023-01-23T11:59:49.998Z,0.36
2023-01-23T12:02:19.535Z,0.38
2023-01-23T12:05:10.379Z,0.39
2023-01-23T12:08:04.487Z,0.41
2023-01-23T12:10:55.858Z,0.46
2023-01-23T12:13:42.375Z,0.47
2023-01-23T12:16:26.136Z,0.45
2023-01-23T12:19:20.176Z,0.45
2023-01-23T12:22:10.434Z,0.45
2023-01-23T12:25:05.013Z,0.43
2023-01-23T12:27:44.737Z,0.45
2023-01-23T12:30:29.519Z,0.48
2023-01-23T12:33:22.801Z,0.48
2023-01-23T12:36:23.577Z,0.47
2023-01-23T12:39:14.899Z,0.46
2023-01-23T12:42:06.492Z,0.46
2023-01-23T12:44:37.974Z,0.48
2023-01-23T12:47:24.467Z,0.49
2023-01-23T12:49:55.423Z,0.50
2023-01-23T12:52:38.578Z,0.48
2023-01-23T12:55:20.277Z,0.46
2023-01-23T12:58:08.095Z,0.46
2023-01-23T13:00:40.954Z,0.44
2023-01-23T13:03:22.953Z,0.47
2023-01-23T13:06:08.443Z,0.47
2023-01-23T13:09:00.130Z,0.48
2023-01-23T13:11:56.738Z,0.51
2023-01-23T13:14:47.657Z,0.50
2023-01-23T13:17:46.946Z,0.50
2023-01-23T13:20:46.421Z,0.51
2023-01-23T13:23:31.121Z,0.51
2023-01-23T13:26:17.532Z,0.50
2023-01-23T13:28:48.875Z,0.53
2023-01-23T13:31:35.603Z,0.51
2023-01-23T13:34:23.161Z,0.52
2023-01-23T13:36:54.390Z,0.53
2023-01-23T13:39:22.678Z,0.53
2023-01-23T13:42:14.589Z,0.56
2023-01-23T13:45:15.304Z,0.56
2023-01-23T14:22:43.291Z,0.75
2023-01-23T14:25:19.201Z,0.77
2023-01-23T14:27:54.618Z,0.78
2023-01-23T14:30:27.118Z,0.76
2023-01-23T14:32:55.590Z,0.78
2023-01-23T14:35:26.077Z,0.77
2023-01-23T14:37:55.822Z,0.73
2023-01-23T14:40:35.345Z,0.71
2023-01-23T14:43:17.362Z,0.70
2023-01-23T14:45:48.295Z,0.69
2023-01-23T14:48:17.310Z,0.68
2023-01-23T14:50:43.985Z,0.68
2023-01-23T14:53:15.799Z,0.68
2023-01-23T14:55:47.497Z,0.68
2023-01-23T14:58:21.517Z,0.67
2023-01-23T15:00:49.526Z,0.66
2023-01-23T15:04:00.361Z,0.62
2023-01-23T15:06:29.683Z,0.63
2023-01-23T15:09:09.455Z,0.61
2023-01-23T15:11:36.161Z,0.61
2023-01-23T15:14:04.069Z,0.63
2023-01-23T15:16:35.239Z,0.62
2023-01-23T15:19:03.566Z,0.63
2023-01-23T15:21:47.617Z,0.63
2023-01-23T15:24:14.095Z,0.62
2023-01-23T15:26:42.841Z,0.61
2023-01-23T15:29:09.260Z,0.60
2023-01-23T15:31:41.874Z,0.60
2023-01-23T15:34:14.588Z,0.62
2023-01-23T15:36:47.366Z,0.64
2023-01-23T15:39:29.426Z,0.63
2023-01-23T15:42:07.157Z,0.66
2023-01-23T15:44:33.731Z,0.67
2023-01-23T15:47:01.307Z,0.70
2023-01-23T15:49:29.663Z,0.75
2023-01-23T15:51:58.431Z,0.77
2023-01-23T15:54:33.155Z,0.78
2023-01-23T15:57:08.284Z,0.81
2023-01-23T15:59:36.772Z,0.80
2023-01-23T16:02:04.801Z,0.80
2023-01-23T16:04:31.476Z,0.80
2023-01-23T16:07:05.176Z,0.81
2023-01-23T16:09:35.379Z,0.78
2023-01-23T16:12:04.387Z,0.80
2023-01-23T16:14:32.726Z,0.81
2023-01-23T16:17:11.514Z,0.79
2023-01-23T16:19:42.986Z,0.81
2023-01-23T16:22:22.617Z,0.85
2023-01-23T16:24:57.562Z,0.87
2023-01-23T16:27:27.700Z,0.89
2023-01-23T16:29:58.307Z,0.87
2023-01-23T16:32:25.468Z,0.89
2023-01-23T16:34:52.063Z,0.91
2023-01-23T16:37:19.007Z,0.91
2023-01-23T16:39:48.581Z,0.90
2023-01-23T16:42:18.784Z,0.89
2023-01-23T16:44:45.291Z,0.91
2023-01-23T16:47:12.227Z,0.93
2023-01-23T16:49:51.379Z,0.93
2023-01-23T16:52:19.111Z,0.98
2023-01-23T16:54:45.649Z,0.98
2023-01-23T16:57:18.981Z,1.02
2023-01-23T16:59:53.117Z,1.07
2023-01-23T17:02:22.196Z,1.20
2023-01-23T17:04:49.348Z,1.27
2023-01-23T17:07:21.794Z,1.37
2023-01-23T17:09:54.273Z,1.46
2023-01-23T17:12:29.394Z,1.47
2023-01-23T17:14:56.817Z,1.46
2023-01-23T17:17:34.352Z,1.51
2023-01-23T17:20:05.355Z,1.50
2023-01-23T17:22:41.311Z,1.48
2023-01-23T17:25:19.875Z,1.48
2023-01-23T17:27:57.416Z,1.50
2023-01-23T17:30:33.623Z,1.50
2023-01-23T17:33:00.163Z,1.48
2023-01-23T17:35:34.800Z,1.48
2023-01-23T17:38:01.420Z,1.46
2023-01-23T17:40:30.200Z,1.46
2023-01-23T17:42:57.126Z,1.48
2023-01-23T17:45:28.606Z,1.48
2023-01-23T17:47:55.835Z,1.46
2023-01-23T17:50:25.076Z,1.50
2023-01-23T17:52:53.073Z,1.49
2023-01-23T17:55:23.946Z,1.50
2023-01-23T17:57:56.527Z,1.49
2023-01-23T18:00:23.420Z,1.46
2023-01-23T18:03:05.244Z,1.46
2023-01-23T18:05:35.329Z,1.43
2023-01-23T18:08:02.198Z,1.43
2023-01-23T18:10:31.539Z,1.44
2023-01-23T18:13:29.089Z,1.42
2023-01-23T18:16:11.077Z,1.42
2023-01-23T18:18:40.712Z,1.40
2023-01-23T18:21:16.833Z,1.40
2023-01-23T18:23:44.113Z,1.41
2023-01-23T18:26:47.982Z,1.41
2023-01-23T18:29:26.584Z,1.38
2023-01-23T18:32:20.639Z,1.37
2023-01-23T18:35:04.461Z,1.36
2023-01-23T18:38:18.363Z,1.35
2023-01-23T18:41:08.934Z,1.35
2023-01-23T18:43:41.511Z,1.35
2023-01-23T18:46:17.800Z,1.34
2023-01-23T18:48:46.025Z,1.35
2023-01-23T18:51:39.619Z,1.33
2023-01-23T18:54:19.519Z,1.31
2023-01-23T18:56:57.768Z,1.29
2023-01-23T18:59:53.768Z,1.30
2023-01-23T19:02:45.114Z,1.28
2023-01-23T19:05:14.155Z,1.26
2023-01-23T19:07:40.910Z,1.25
2023-01-23T19:10:14.076Z,1.22
2023-01-23T19:13:06.209Z,1.18
2023-01-23T19:15:59.582Z,1.18
2023-01-23T19:19:16.016Z,1.14
2023-01-23T19:21:45.988Z,1.14
2023-01-23T19:24:16.624Z,1.12
2023-01-23T19:26:43.353Z,1.08
2023-01-23T19:29:21.643Z,1.03
2023-01-23T19:32:07.251Z,0.97
2023-01-23T19:34:34.555Z,0.91
2023-01-23T19:37:03.366Z,0.88
2023-01-23T19:39:32.157Z,0.84
2023-01-23T19:41:59.640Z,0.82
2023-01-23T19:44:30.514Z,0.77
2023-01-23T19:46:57.414Z,0.75
2023-01-23T19:49:25.237Z,0.71
2023-01-23T19:51:52.007Z,0.67
2023-01-23T19:54:18.778Z,0.61
2023-01-23T19:56:45.331Z,0.58
2023-01-23T19:59:11.991Z,0.57
2023-01-23T20:01:43.493Z,0.54
2023-01-23T20:04:16.382Z,0.51
2023-01-23T20:06:46.408Z,0.49
2023-01-23T20:09:16.173Z,0.50
2023-01-23T20:11:48.304Z,0.48
2023-01-23T20:14:14.916Z,0.48
2023-01-23T20:16:43.412Z,0.47
2023-01-23T20:19:16.805Z,0.46
2023-01-23T20:21:43.428Z,0.45
2023-01-23T20:24:10.345Z,0.45
2023-01-23T20:26:37.510Z,0.43
2023-01-23T20:29:05.069Z,0.45
2023-01-23T20:31:32.174Z,0.44
2023-01-23T20:33:59.168Z,0.43
2023-01-23T20:36:25.754Z,0.43
2023-01-23T20:38:52.229Z,0.42
2023-01-23T20:41:20.869Z,0.41
2023-01-23T20:43:47.692Z,0.40
2023-01-23T20:46:15.789Z,0.41
2023-01-23T20:48:46.818Z,0.38
2023-01-23T20:51:15.414Z,0.36
2023-01-23T20:53:42.578Z,0.34
2023-01-23T20:56:20.467Z,0.35
2023-01-23T20:59:08.551Z,0.33
2023-01-23T21:01:55.691Z,0.33
2023-01-23T21:04:24.147Z,0.33
2023-01-23T21:06:50.879Z,0.33
2023-01-23T21:09:18.070Z,0.33
2023-01-23T21:11:45.160Z,0.32
2023-01-23T21:14:13.582Z,0.31
2023-01-23T21:16:40.097Z,0.32
2023-01-23T21:19:06.954Z,0.32
2023-01-23T21:21:34.387Z,0.32
2023-01-23T21:24:00.971Z,0.33
2023-01-23T21:26:28.526Z,0.32
2023-01-23T21:28:56.631Z,0.32
2023-01-23T21:31:26.849Z,0.33
2023-01-23T21:33:54.326Z,0.33
2023-01-23T21:36:23.712Z,0.34
2023-01-23T21:38:53.320Z,0.33
2023-01-23T21:41:20.601Z,0.34
2023-01-23T21:43:47.283Z,0.33
2023-01-23T21:46:14.043Z,0.35
2023-01-23T21:48:41.111Z,0.35
2023-01-23T21:51:13.865Z,0.37
2023-01-23T21:53:44.512Z,0.38
2023-01-23T21:56:12.709Z,0.40
2023-01-23T21:58:39.395Z,0.41
2023-01-23T22:01:31.404Z,0.43
2023-01-23T22:04:02.198Z,0.50
2023-01-23T22:06:29.080Z,0.52
2023-01-23T22:09:03.375Z,0.57
2023-01-23T22:11:30.403Z,0.64
2023-01-23T22:13:58.174Z,0.74
2023-01-23T22:16:40.181Z,0.79
2023-01-23T22:19:19.569Z,0.89
2023-01-23T22:21:46.892Z,0.96
2023-01-23T22:24:14.676Z,1.06
2023-01-23T22:26:41.269Z,1.12
2023-01-23T22:29:10.257Z,1.14
2023-01-23T22:31:36.818Z,1.17
2023-01-23T22:34:03.411Z,1.20
2023-01-23T22:36:41.280Z,1.26
2023-01-23T22:39:12.048Z,1.31
2023-01-23T22:41:38.542Z,1.36
2023-01-23T22:44:11.309Z,1.36
2023-01-23T22:46:38.695Z,1.35
2023-01-23T22:49:05.468Z,1.39
2023-01-23T22:51:32.367Z,1.40
2023-01-23T22:53:59.211Z,1.44
2023-01-23T22:56:27.312Z,1.50
2023-01-23T22:58:55.171Z,1.54
2023-01-23T23:01:23.633Z,1.52
2023-01-23T23:03:51.497Z,1.48
2023-01-23T23:06:19.174Z,1.47
2023-01-23T23:08:48.751Z,1.44
2023-01-23T23:11:18.098Z,1.45
2023-01-23T23:13:45.375Z,1.45
2023-01-23T23:16:16.727Z,1.48
2023-01-23T23:18:44.404Z,1.49
2023-01-23T23:21:13.662Z,1.48
2023-01-23T23:23:42.184Z,1.49
2023-01-23T23:26:09.855Z,1.48
2023-01-23T23:28:39.041Z,1.50
2023-01-23T23:31:08.515Z,1.52
2023-01-23T23:33:35.819Z,1.47
2023-01-23T23:36:02.332Z,1.47
2023-01-23T23:38:30.552Z,1.45
2023-01-23T23:41:00.651Z,1.45
2023-01-23T23:43:28.152Z,1.43
2023-01-23T23:45:59.181Z,1.40
2023-01-23T23:48:26.595Z,1.40
2023-01-23T23:50:54.298Z,1.39
2023-01-23T23:53:26.539Z,1.40
2023-01-23T23:55:53.226Z,1.43
2023-01-23T23:58:19.763Z,1.47
